Terminal Aerodrome Forecast
Issued by NWS Mt. Holly, NJ

Home | Current Version | Previous Version | Text Only | Print | Product List | Glossary On
Versions: 1 2 3 4 5 6 7 8 9 10 11 12
000
FTUS41 KPHI 300500
TAFTTN
TAF
KTTN 300526Z 3006/3106 VRB03KT P6SM FEW040 SCT250
     FM301400 18005KT P6SM SCT040 BKN100
     FM301800 21008KT P6SM BKN050
     FM310200 18005KT P6SM SCT050 BKN150=

USA.gov is the U.S. government's official web portal to all federal, state and local government web resources and services.